sensor_id;sensor_type;location;lat;lon;timestamp;pressure;altitude;pressure_sealevel;temperature
42119;BMP280;27783;42.782;23.274;2022-08-26T00:01:16;95133.34;;;23.00
42119;BMP280;27783;42.782;23.274;2022-08-26T00:03:41;95117.75;;;23.04
42119;BMP280;27783;42.782;23.274;2022-08-26T00:06:07;95130.16;;;23.02
42119;BMP280;27783;42.782;23.274;2022-08-26T00:08:33;95128.22;;;23.02
42119;BMP280;27783;42.782;23.274;2022-08-26T00:10:58;95127.97;;;23.00
42119;BMP280;27783;42.782;23.274;2022-08-26T00:13:24;95131.09;;;22.99
42119;BMP280;27783;42.782;23.274;2022-08-26T00:15:50;95131.28;;;22.95
42119;BMP280;27783;42.782;23.274;2022-08-26T00:18:16;95123.53;;;22.97
42119;BMP280;27783;42.782;23.274;2022-08-26T00:20:42;95136.13;;;22.91
42119;BMP280;27783;42.782;23.274;2022-08-26T00:23:08;95126.13;;;22.92
42119;BMP280;27783;42.782;23.274;2022-08-26T00:25:33;95122.91;;;22.88
42119;BMP280;27783;42.782;23.274;2022-08-26T00:27:59;95123.16;;;22.90
42119;BMP280;27783;42.782;23.274;2022-08-26T00:30:27;95121.88;;;22.86
42119;BMP280;27783;42.782;23.274;2022-08-26T00:32:53;95121.22;;;22.90
42119;BMP280;27783;42.782;23.274;2022-08-26T00:35:19;95128.75;;;22.87
42119;BMP280;27783;42.782;23.274;2022-08-26T00:37:45;95127.25;;;22.86
42119;BMP280;27783;42.782;23.274;2022-08-26T00:40:18;95117.97;;;22.87
42119;BMP280;27783;42.782;23.274;2022-08-26T00:42:44;95129.13;;;22.80
42119;BMP280;27783;42.782;23.274;2022-08-26T00:45:10;95118.94;;;22.84
42119;BMP280;27783;42.782;23.274;2022-08-26T00:47:39;95119.19;;;22.86
42119;BMP280;27783;42.782;23.274;2022-08-26T00:50:11;95126.69;;;22.82
42119;BMP280;27783;42.782;23.274;2022-08-26T00:52:38;95126.50;;;22.85
42119;BMP280;27783;42.782;23.274;2022-08-26T00:57:41;95125.88;;;22.76
42119;BMP280;27783;42.782;23.274;2022-08-26T01:00:12;95119.03;;;22.75
42119;BMP280;27783;42.782;23.274;2022-08-26T01:02:39;95119.03;;;22.75
42119;BMP280;27783;42.782;23.274;2022-08-26T01:05:06;95125.63;;;22.74
42119;BMP280;27783;42.782;23.274;2022-08-26T01:07:32;95127.00;;;22.70
42119;BMP280;27783;42.782;23.274;2022-08-26T01:10:05;95125.44;;;22.77
42119;BMP280;27783;42.782;23.274;2022-08-26T01:12:38;95125.81;;;22.71
42119;BMP280;27783;42.782;23.274;2022-08-26T01:15:04;95126.56;;;22.71
42119;BMP280;27783;42.782;23.274;2022-08-26T01:17:30;95130.00;;;22.72
42119;BMP280;27783;42.782;23.274;2022-08-26T01:20:03;95128.22;;;22.69
42119;BMP280;27783;42.782;23.274;2022-08-26T01:23:00;95130.63;;;22.67
42119;BMP280;27783;42.782;23.274;2022-08-26T01:25:26;95126.19;;;22.64
42119;BMP280;27783;42.782;23.274;2022-08-26T01:27:55;95125.72;;;22.65
42119;BMP280;27783;42.782;23.274;2022-08-26T01:30:23;95122.97;;;22.60
42119;BMP280;27783;42.782;23.274;2022-08-26T01:32:49;95114.28;;;22.51
42119;BMP280;27783;42.782;23.274;2022-08-26T01:35:15;95111.41;;;22.54
42119;BMP280;27783;42.782;23.274;2022-08-26T01:37:41;95117.97;;;22.53
42119;BMP280;27783;42.782;23.274;2022-08-26T01:40:08;95117.31;;;22.58
42119;BMP280;27783;42.782;23.274;2022-08-26T01:42:36;95112.69;;;22.58
42119;BMP280;27783;42.782;23.274;2022-08-26T01:47:34;95112.50;;;22.48
42119;BMP280;27783;42.782;23.274;2022-08-26T01:50:05;95119.72;;;22.42
42119;BMP280;27783;42.782;23.274;2022-08-26T01:52:34;95107.88;;;22.48
42119;BMP280;27783;42.782;23.274;2022-08-26T01:55:03;95115.19;;;22.48
42119;BMP280;27783;42.782;23.274;2022-08-26T01:57:29;95114.53;;;22.53
42119;BMP280;27783;42.782;23.274;2022-08-26T01:59:57;95113.06;;;22.52
42119;BMP280;27783;42.782;23.274;2022-08-26T02:02:24;95108.78;;;22.45
42119;BMP280;27783;42.782;23.274;2022-08-26T02:04:56;95112.00;;;22.49
42119;BMP280;27783;42.782;23.274;2022-08-26T02:07:22;95111.19;;;22.43
42119;BMP280;27783;42.782;23.274;2022-08-26T02:09:48;95103.69;;;22.47
42119;BMP280;27783;42.782;23.274;2022-08-26T02:12:16;95106.56;;;22.44
42119;BMP280;27783;42.782;23.274;2022-08-26T02:14:46;95108.06;;;22.45
42119;BMP280;27783;42.782;23.274;2022-08-26T02:17:15;95120.44;;;22.42
42119;BMP280;27783;42.782;23.274;2022-08-26T02:19:46;95102.88;;;22.41
42119;BMP280;27783;42.782;23.274;2022-08-26T02:22:15;95110.81;;;22.36
42119;BMP280;27783;42.782;23.274;2022-08-26T02:24:55;95109.38;;;22.35
42119;BMP280;27783;42.782;23.274;2022-08-26T02:27:24;95099.72;;;22.43
42119;BMP280;27783;42.782;23.274;2022-08-26T02:29:56;95111.19;;;22.29
42119;BMP280;27783;42.782;23.274;2022-08-26T02:32:22;95107.31;;;22.30
42119;BMP280;27783;42.782;23.274;2022-08-26T02:34:47;95112.97;;;22.32
42119;BMP280;27783;42.782;23.274;2022-08-26T02:37:12;95112.69;;;22.30
42119;BMP280;27783;42.782;23.274;2022-08-26T02:39:40;95113.06;;;22.23
42119;BMP280;27783;42.782;23.274;2022-08-26T02:42:06;95116.94;;;22.22
42119;BMP280;27783;42.782;23.274;2022-08-26T02:44:31;95109.94;;;22.11
42119;BMP280;27783;42.782;23.274;2022-08-26T02:46:57;95116.22;;;22.08
42119;BMP280;27783;42.782;23.274;2022-08-26T02:49:23;95116.03;;;22.11
42119;BMP280;27783;42.782;23.274;2022-08-26T02:51:49;95119.66;;;22.08
42119;BMP280;27783;42.782;23.274;2022-08-26T02:54:17;95115.94;;;22.06
42119;BMP280;27783;42.782;23.274;2022-08-26T02:56:43;95116.59;;;22.01
42119;BMP280;27783;42.782;23.274;2022-08-26T02:59:09;95111.59;;;22.08
42119;BMP280;27783;42.782;23.274;2022-08-26T03:01:37;95106.25;;;22.08
42119;BMP280;27783;42.782;23.274;2022-08-26T03:04:04;95111.78;;;22.05
42119;BMP280;27783;42.782;23.274;2022-08-26T03:06:31;95108.06;;;22.03
42119;BMP280;27783;42.782;23.274;2022-08-26T03:08:56;95109.66;;;21.95
42119;BMP280;27783;42.782;23.274;2022-08-26T03:11:22;95111.03;;;21.90
42119;BMP280;27783;42.782;23.274;2022-08-26T03:13:48;95114.38;;;21.86
42119;BMP280;27783;42.782;23.274;2022-08-26T03:16:15;95125.56;;;21.98
42119;BMP280;27783;42.782;23.274;2022-08-26T03:18:41;95133.44;;;21.88
42119;BMP280;27783;42.782;23.274;2022-08-26T03:21:07;95114.00;;;21.92
42119;BMP280;27783;42.782;23.274;2022-08-26T03:23:33;95110.94;;;21.85
42119;BMP280;27783;42.782;23.274;2022-08-26T03:25:59;95116.69;;;21.92
42119;BMP280;27783;42.782;23.274;2022-08-26T03:28:25;95110.09;;;21.93
42119;BMP280;27783;42.782;23.274;2022-08-26T03:30:50;95111.69;;;22.00
42119;BMP280;27783;42.782;23.274;2022-08-26T03:33:16;95116.03;;;21.97
42119;BMP280;27783;42.782;23.274;2022-08-26T03:35:44;95114.72;;;21.93
42119;BMP280;27783;42.782;23.274;2022-08-26T03:38:11;95119.91;;;21.96
42119;BMP280;27783;42.782;23.274;2022-08-26T03:40:38;95116.22;;;21.94
42119;BMP280;27783;42.782;23.274;2022-08-26T03:43:08;95111.78;;;21.91
42119;BMP280;27783;42.782;23.274;2022-08-26T03:45:35;95119.09;;;21.90
42119;BMP280;27783;42.782;23.274;2022-08-26T03:48:01;95123.63;;;21.85
42119;BMP280;27783;42.782;23.274;2022-08-26T03:50:27;95116.03;;;21.83
42119;BMP280;27783;42.782;23.274;2022-08-26T03:52:54;95120.75;;;21.88
42119;BMP280;27783;42.782;23.274;2022-08-26T03:55:22;95112.53;;;21.91
42119;BMP280;27783;42.782;23.274;2022-08-26T03:57:47;95113.81;;;21.96
42119;BMP280;27783;42.782;23.274;2022-08-26T04:00:14;95117.53;;;21.98
42119;BMP280;27783;42.782;23.274;2022-08-26T04:02:42;95107.16;;;21.91
42119;BMP280;27783;42.782;23.274;2022-08-26T04:05:12;95117.53;;;21.98
42119;BMP280;27783;42.782;23.274;2022-08-26T04:07:39;95116.69;;;22.06
42119;BMP280;27783;42.782;23.274;2022-08-26T04:10:05;95122.88;;;21.98
42119;BMP280;27783;42.782;23.274;2022-08-26T04:12:31;95125.22;;;21.68
42119;BMP280;27783;42.782;23.274;2022-08-26T04:14:56;95115.47;;;21.93
42119;BMP280;27783;42.782;23.274;2022-08-26T04:17:22;95110.84;;;21.94
42119;BMP280;27783;42.782;23.274;2022-08-26T04:19:53;95112.25;;;22.04
42119;BMP280;27783;42.782;23.274;2022-08-26T04:22:18;95113.44;;;22.03
42119;BMP280;27783;42.782;23.274;2022-08-26T04:24:43;95117.03;;;22.00
42119;BMP280;27783;42.782;23.274;2022-08-26T04:27:10;95109.47;;;21.98
42119;BMP280;27783;42.782;23.274;2022-08-26T04:29:36;95107.16;;;22.05
42119;BMP280;27783;42.782;23.274;2022-08-26T04:32:05;95103.06;;;22.10
42119;BMP280;27783;42.782;23.274;2022-08-26T04:34:31;95107.06;;;22.14
42119;BMP280;27783;42.782;23.274;2022-08-26T04:36:57;95110.19;;;22.13
42119;BMP280;27783;42.782;23.274;2022-08-26T04:39:23;95109.38;;;22.21
42119;BMP280;27783;42.782;23.274;2022-08-26T04:41:49;95107.50;;;22.27
42119;BMP280;27783;42.782;23.274;2022-08-26T04:44:15;95097.81;;;22.15
42119;BMP280;27783;42.782;23.274;2022-08-26T04:46:40;95106.94;;;22.23
42119;BMP280;27783;42.782;23.274;2022-08-26T04:49:06;95110.81;;;22.36
42119;BMP280;27783;42.782;23.274;2022-08-26T04:51:35;95110.28;;;22.32
42119;BMP280;27783;42.782;23.274;2022-08-26T04:54:00;95113.69;;;22.47
42119;BMP280;27783;42.782;23.274;2022-08-26T04:56:29;95114.16;;;22.45
42119;BMP280;27783;42.782;23.274;2022-08-26T04:58:54;95112.16;;;22.55
42119;BMP280;27783;42.782;23.274;2022-08-26T05:01:21;95112.97;;;22.60
42119;BMP280;27783;42.782;23.274;2022-08-26T05:03:47;95113.50;;;22.64
42119;BMP280;27783;42.782;23.274;2022-08-26T05:06:17;95112.84;;;22.69
42119;BMP280;27783;42.782;23.274;2022-08-26T05:08:44;95110.44;;;22.71
42119;BMP280;27783;42.782;23.274;2022-08-26T05:11:10;95116.00;;;22.68
42119;BMP280;27783;42.782;23.274;2022-08-26T05:13:35;95116.75;;;22.68
42119;BMP280;27783;42.782;23.274;2022-08-26T05:16:04;95119.03;;;22.75
42119;BMP280;27783;42.782;23.274;2022-08-26T05:18:30;95125.78;;;22.85
42119;BMP280;27783;42.782;23.274;2022-08-26T05:20:56;95115.34;;;22.92
42119;BMP280;27783;42.782;23.274;2022-08-26T05:23:22;95125.91;;;22.95
42119;BMP280;27783;42.782;23.274;2022-08-26T05:25:49;95125.47;;;22.97
42119;BMP280;27783;42.782;23.274;2022-08-26T05:28:16;95127.56;;;23.07
42119;BMP280;27783;42.782;23.274;2022-08-26T05:30:42;95129.25;;;23.05
42119;BMP280;27783;42.782;23.274;2022-08-26T05:33:08;95128.06;;;23.25
42119;BMP280;27783;42.782;23.274;2022-08-26T05:35:35;95128.34;;;23.27
42119;BMP280;27783;42.782;23.274;2022-08-26T05:38:05;95120.88;;;23.36
42119;BMP280;27783;42.782;23.274;2022-08-26T05:40:34;95121.88;;;23.38
42119;BMP280;27783;42.782;23.274;2022-08-26T05:43:00;95124.09;;;23.40
42119;BMP280;27783;42.782;23.274;2022-08-26T05:45:26;95123.69;;;23.47
42119;BMP280;27783;42.782;23.274;2022-08-26T05:47:52;95124.38;;;23.42
42119;BMP280;27783;42.782;23.274;2022-08-26T05:50:17;95120.53;;;23.48
42119;BMP280;27783;42.782;23.274;2022-08-26T05:52:48;95123.50;;;23.50
42119;BMP280;27783;42.782;23.274;2022-08-26T05:55:14;95127.19;;;23.53
42119;BMP280;27783;42.782;23.274;2022-08-26T05:57:39;95131.88;;;23.57
42119;BMP280;27783;42.782;23.274;2022-08-26T06:00:05;95133.44;;;23.64
42119;BMP280;27783;42.782;23.274;2022-08-26T06:02:30;95128.31;;;23.66
42119;BMP280;27783;42.782;23.274;2022-08-26T06:04:56;95129.19;;;23.77
42119;BMP280;27783;42.782;23.274;2022-08-26T06:07:21;95134.34;;;23.80
42119;BMP280;27783;42.782;23.274;2022-08-26T06:10:07;95132.66;;;23.83
42119;BMP280;27783;42.782;23.274;2022-08-26T06:12:35;95138.22;;;23.93
42119;BMP280;27783;42.782;23.274;2022-08-26T06:15:01;95135.56;;;23.99
42119;BMP280;27783;42.782;23.274;2022-08-26T06:17:27;95141.47;;;24.03
42119;BMP280;27783;42.782;23.274;2022-08-26T06:19:53;95140.44;;;24.00
42119;BMP280;27783;42.782;23.274;2022-08-26T06:22:19;95142.22;;;24.03
42119;BMP280;27783;42.782;23.274;2022-08-26T06:25:03;95144.97;;;24.08
42119;BMP280;27783;42.782;23.274;2022-08-26T06:27:47;95140.56;;;24.11
42119;BMP280;27783;42.782;23.274;2022-08-26T06:30:13;95140.16;;;24.18
42119;BMP280;27783;42.782;23.274;2022-08-26T06:32:38;95143.63;;;24.23
42119;BMP280;27783;42.782;23.274;2022-08-26T06:35:04;95141.25;;;24.31
42119;BMP280;27783;42.782;23.274;2022-08-26T06:37:30;95139.75;;;24.30
42119;BMP280;27783;42.782;23.274;2022-08-26T06:39:55;95143.19;;;24.30
42119;BMP280;27783;42.782;23.274;2022-08-26T06:42:21;95147.91;;;24.35
42119;BMP280;27783;42.782;23.274;2022-08-26T06:44:46;95145.97;;;24.36
42119;BMP280;27783;42.782;23.274;2022-08-26T06:47:12;95148.72;;;24.46
42119;BMP280;27783;42.782;23.274;2022-08-26T06:49:37;95147.84;;;24.55
42119;BMP280;27783;42.782;23.274;2022-08-26T06:52:03;95158.50;;;24.44
42119;BMP280;27783;42.782;23.274;2022-08-26T06:54:30;95148.81;;;24.52
42119;BMP280;27783;42.782;23.274;2022-08-26T06:56:56;95150.06;;;24.56
42119;BMP280;27783;42.782;23.274;2022-08-26T06:59:21;95148.63;;;24.60
42119;BMP280;27783;42.782;23.274;2022-08-26T07:01:47;95150.47;;;24.74
42119;BMP280;27783;42.782;23.274;2022-08-26T07:04:14;95153.16;;;24.74
42119;BMP280;27783;42.782;23.274;2022-08-26T07:06:43;95146.34;;;24.78
42119;BMP280;27783;42.782;23.274;2022-08-26T07:09:13;95148.09;;;24.87
42119;BMP280;27783;42.782;23.274;2022-08-26T07:11:38;95143.22;;;24.90
42119;BMP280;27783;42.782;23.274;2022-08-26T07:14:04;95144.72;;;24.97
42119;BMP280;27783;42.782;23.274;2022-08-26T07:16:30;95146.25;;;25.03
42119;BMP280;27783;42.782;23.274;2022-08-26T07:18:56;95152.66;;;25.11
42119;BMP280;27783;42.782;23.274;2022-08-26T07:21:22;95155.16;;;25.14
42119;BMP280;27783;42.782;23.274;2022-08-26T07:23:49;95155.19;;;25.20
42119;BMP280;27783;42.782;23.274;2022-08-26T07:26:18;95152.03;;;25.26
42119;BMP280;27783;42.782;23.274;2022-08-26T07:28:45;95151.13;;;25.35
42119;BMP280;27783;42.782;23.274;2022-08-26T07:31:13;95156.09;;;25.47
42119;BMP280;27783;42.782;23.274;2022-08-26T07:33:40;95153.91;;;25.61
42119;BMP280;27783;42.782;23.274;2022-08-26T07:36:07;95150.53;;;25.66
42119;BMP280;27783;42.782;23.274;2022-08-26T07:38:33;95146.13;;;25.74
42119;BMP280;27783;42.782;23.274;2022-08-26T07:40:59;95146.13;;;25.74
42119;BMP280;27783;42.782;23.274;2022-08-26T07:43:26;95144.66;;;25.73
42119;BMP280;27783;42.782;23.274;2022-08-26T07:45:52;95138.97;;;25.66
42119;BMP280;27783;42.782;23.274;2022-08-26T07:48:18;95145.09;;;25.61
42119;BMP280;27783;42.782;23.274;2022-08-26T07:50:44;95148.28;;;25.65
42119;BMP280;27783;42.782;23.274;2022-08-26T07:53:10;95150.75;;;25.68
42119;BMP280;27783;42.782;23.274;2022-08-26T07:55:36;95141.72;;;25.71
42119;BMP280;27783;42.782;23.274;2022-08-26T07:58:02;95141.28;;;25.83
42119;BMP280;27783;42.782;23.274;2022-08-26T08:00:28;95147.69;;;25.91
42119;BMP280;27783;42.782;23.274;2022-08-26T08:02:58;95146.50;;;25.97
42119;BMP280;27783;42.782;23.274;2022-08-26T08:05:23;95146.97;;;26.01
42119;BMP280;27783;42.782;23.274;2022-08-26T08:07:49;95146.00;;;26.09
42119;BMP280;27783;42.782;23.274;2022-08-26T08:10:20;95144.56;;;26.19
42119;BMP280;27783;42.782;23.274;2022-08-26T08:12:46;95140.16;;;26.32
42119;BMP280;27783;42.782;23.274;2022-08-26T08:15:12;95140.69;;;26.41
42119;BMP280;27783;42.782;23.274;2022-08-26T08:17:39;95132.56;;;26.58
42119;BMP280;27783;42.782;23.274;2022-08-26T08:20:07;95138.47;;;26.83
42119;BMP280;27783;42.782;23.274;2022-08-26T08:22:33;95144.59;;;26.83
42119;BMP280;27783;42.782;23.274;2022-08-26T08:24:59;95138.94;;;26.87
42119;BMP280;27783;42.782;23.274;2022-08-26T08:27:25;95143.59;;;26.97
42119;BMP280;27783;42.782;23.274;2022-08-26T08:29:52;95146.34;;;27.02
42119;BMP280;27783;42.782;23.274;2022-08-26T08:32:21;95147.81;;;26.98
42119;BMP280;27783;42.782;23.274;2022-08-26T08:34:47;95140.19;;;27.02
42119;BMP280;27783;42.782;23.274;2022-08-26T08:37:12;95143.38;;;27.00
42119;BMP280;27783;42.782;23.274;2022-08-26T08:39:37;95143.88;;;27.04
42119;BMP280;27783;42.782;23.274;2022-08-26T08:44:45;95135.53;;;27.02
42119;BMP280;27783;42.782;23.274;2022-08-26T08:47:27;95129.13;;;27.05
42119;BMP280;27783;42.782;23.274;2022-08-26T08:49:57;95125.94;;;27.01
42119;BMP280;27783;42.782;23.274;2022-08-26T08:52:31;95118.03;;;27.08
42119;BMP280;27783;42.782;23.274;2022-08-26T08:54:57;95116.53;;;27.13
42119;BMP280;27783;42.782;23.274;2022-08-26T09:00:16;95116.53;;;27.24
42119;BMP280;27783;42.782;23.274;2022-08-26T09:02:56;95122.13;;;27.36
42119;BMP280;27783;42.782;23.274;2022-08-26T09:05:24;95113.50;;;27.48
42119;BMP280;27783;42.782;23.274;2022-08-26T09:07:58;95108.03;;;27.54
42119;BMP280;27783;42.782;23.274;2022-08-26T09:13:06;95104.81;;;27.71
42119;BMP280;27783;42.782;23.274;2022-08-26T09:19:08;95102.06;;;27.82
42119;BMP280;27783;42.782;23.274;2022-08-26T09:21:38;95103.50;;;27.83
42119;BMP280;27783;42.782;23.274;2022-08-26T09:24:03;95098.03;;;27.93
42119;BMP280;27783;42.782;23.274;2022-08-26T09:29:07;95093.56;;;28.01
42119;BMP280;27783;42.782;23.274;2022-08-26T09:31:37;95082.72;;;28.01
42119;BMP280;27783;42.782;23.274;2022-08-26T09:36:41;95092.28;;;28.02
42119;BMP280;27783;42.782;23.274;2022-08-26T09:44:31;95099.38;;;27.71
42119;BMP280;27783;42.782;23.274;2022-08-26T09:47:00;95102.84;;;27.66
42119;BMP280;27783;42.782;23.274;2022-08-26T09:54:40;95091.91;;;27.88
42119;BMP280;27783;42.782;23.274;2022-08-26T09:57:24;95100.03;;;27.88
42119;BMP280;27783;42.782;23.274;2022-08-26T09:59:50;95090.47;;;27.76
42119;BMP280;27783;42.782;23.274;2022-08-26T10:04:58;95090.22;;;27.79
42119;BMP280;27783;42.782;23.274;2022-08-26T10:10:09;95095.09;;;27.92
42119;BMP280;27783;42.782;23.274;2022-08-26T10:12:39;95082.94;;;28.03
42119;BMP280;27783;42.782;23.274;2022-08-26T10:15:08;95083.69;;;28.04
42119;BMP280;27783;42.782;23.274;2022-08-26T10:17:42;95082.31;;;28.26
42119;BMP280;27783;42.782;23.274;2022-08-26T10:20:14;95078.03;;;28.41
42119;BMP280;27783;42.782;23.274;2022-08-26T10:23:02;95070.47;;;28.58
42119;BMP280;27783;42.782;23.274;2022-08-26T10:25:47;95067.94;;;28.65
42119;BMP280;27783;42.782;23.274;2022-08-26T10:28:39;95066.81;;;28.84
42119;BMP280;27783;42.782;23.274;2022-08-26T10:34:09;95070.97;;;28.85
42119;BMP280;27783;42.782;23.274;2022-08-26T10:36:37;95069.75;;;28.86
42119;BMP280;27783;42.782;23.274;2022-08-26T10:39:21;95065.53;;;28.85
42119;BMP280;27783;42.782;23.274;2022-08-26T10:41:50;95069.25;;;28.87
42119;BMP280;27783;42.782;23.274;2022-08-26T10:44:18;95061.03;;;28.93
42119;BMP280;27783;42.782;23.274;2022-08-26T10:46:51;95066.41;;;28.98
42119;BMP280;27783;42.782;23.274;2022-08-26T10:49:18;95066.47;;;29.16
42119;BMP280;27783;42.782;23.274;2022-08-26T10:52:01;95059.91;;;29.06
42119;BMP280;27783;42.782;23.274;2022-08-26T10:55:23;95059.47;;;29.02
42119;BMP280;27783;42.782;23.274;2022-08-26T10:57:48;95057.50;;;28.97
42119;BMP280;27783;42.782;23.274;2022-08-26T11:00:21;95051.09;;;29.00
42119;BMP280;27783;42.782;23.274;2022-08-26T11:05:33;95049.28;;;28.85
42119;BMP280;27783;42.782;23.274;2022-08-26T11:13:16;95056.75;;;29.02
42119;BMP280;27783;42.782;23.274;2022-08-26T11:18:34;95049.84;;;29.01
42119;BMP280;27783;42.782;23.274;2022-08-26T11:21:00;95042.88;;;28.82
42119;BMP280;27783;42.782;23.274;2022-08-26T11:23:35;95039.31;;;28.93
42119;BMP280;27783;42.782;23.274;2022-08-26T11:30:59;95046.56;;;28.85
42119;BMP280;27783;42.782;23.274;2022-08-26T11:34:01;95047.91;;;28.73
42119;BMP280;27783;42.782;23.274;2022-08-26T11:39:01;95045.47;;;29.16
42119;BMP280;27783;42.782;23.274;2022-08-26T11:41:26;95030.88;;;29.19
42119;BMP280;27783;42.782;23.274;2022-08-26T11:43:55;95041.38;;;29.33
42119;BMP280;27783;42.782;23.274;2022-08-26T11:46:27;95028.31;;;29.50
42119;BMP280;27783;42.782;23.274;2022-08-26T11:49:05;95033.53;;;29.84
42119;BMP280;27783;42.782;23.274;2022-08-26T11:51:32;95032.34;;;29.61
42119;BMP280;27783;42.782;23.274;2022-08-26T11:56:39;95035.19;;;29.51
42119;BMP280;27783;42.782;23.274;2022-08-26T11:59:08;95036.84;;;29.59
42119;BMP280;27783;42.782;23.274;2022-08-26T12:01:37;95028.19;;;29.78
42119;BMP280;27783;42.782;23.274;2022-08-26T12:04:06;95022.66;;;30.02
42119;BMP280;27783;42.782;23.274;2022-08-26T12:06:35;95016.38;;;30.07
42119;BMP280;27783;42.782;23.274;2022-08-26T12:09:05;95019.94;;;30.02
42119;BMP280;27783;42.782;23.274;2022-08-26T12:11:34;95006.63;;;29.98
42119;BMP280;27783;42.782;23.274;2022-08-26T12:16:34;94995.59;;;30.09
42119;BMP280;27783;42.782;23.274;2022-08-26T12:19:01;94996.75;;;30.13
42119;BMP280;27783;42.782;23.274;2022-08-26T12:21:46;94986.50;;;30.37
42119;BMP280;27783;42.782;23.274;2022-08-26T12:24:17;94989.09;;;30.43
42119;BMP280;27783;42.782;23.274;2022-08-26T12:26:44;94989.25;;;30.62
42119;BMP280;27783;42.782;23.274;2022-08-26T12:29:22;94986.22;;;30.66
42119;BMP280;27783;42.782;23.274;2022-08-26T12:32:13;94985.44;;;30.83
42119;BMP280;27783;42.782;23.274;2022-08-26T12:34:40;94985.97;;;30.95
42119;BMP280;27783;42.782;23.274;2022-08-26T12:37:09;94983.00;;;31.05
42119;BMP280;27783;42.782;23.274;2022-08-26T12:39:38;94978.38;;;31.26
42119;BMP280;27783;42.782;23.274;2022-08-26T12:45:00;94974.47;;;31.59
42119;BMP280;27783;42.782;23.274;2022-08-26T12:47:33;94973.03;;;32.11
42119;BMP280;27783;42.782;23.274;2022-08-26T12:52:33;94964.59;;;32.81
42119;BMP280;27783;42.782;23.274;2022-08-26T12:55:51;94963.13;;;33.42
42119;BMP280;27783;42.782;23.274;2022-08-26T13:06:10;94961.19;;;34.20
42119;BMP280;27783;42.782;23.274;2022-08-26T13:08:39;94955.69;;;37.02
42119;BMP280;27783;42.782;23.274;2022-08-26T13:11:22;94941.47;;;38.30
42119;BMP280;27783;42.782;23.274;2022-08-26T13:13:55;94949.53;;;36.22
42119;BMP280;27783;42.782;23.274;2022-08-26T13:16:22;94952.72;;;36.35
42119;BMP280;27783;42.782;23.274;2022-08-26T13:19:09;94933.88;;;37.95
42119;BMP280;27783;42.782;23.274;2022-08-26T13:21:36;94936.28;;;39.77
42119;BMP280;27783;42.782;23.274;2022-08-26T13:24:07;94937.22;;;40.48
42119;BMP280;27783;42.782;23.274;2022-08-26T13:26:36;94927.56;;;40.68
42119;BMP280;27783;42.782;23.274;2022-08-26T13:29:01;94926.13;;;37.42
42119;BMP280;27783;42.782;23.274;2022-08-26T13:31:29;94931.41;;;38.95
42119;BMP280;27783;42.782;23.274;2022-08-26T13:33:55;94921.88;;;39.70
42119;BMP280;27783;42.782;23.274;2022-08-26T13:36:21;94930.81;;;37.49
42119;BMP280;27783;42.782;23.274;2022-08-26T13:38:46;94927.03;;;36.88
42119;BMP280;27783;42.782;23.274;2022-08-26T13:41:12;94921.78;;;37.65
42119;BMP280;27783;42.782;23.274;2022-08-26T13:43:37;94929.16;;;40.32
42119;BMP280;27783;42.782;23.274;2022-08-26T13:46:03;94931.06;;;41.18
42119;BMP280;27783;42.782;23.274;2022-08-26T13:48:29;94933.88;;;41.09
42119;BMP280;27783;42.782;23.274;2022-08-26T13:50:58;94925.75;;;42.37
42119;BMP280;27783;42.782;23.274;2022-08-26T13:53:24;94926.97;;;42.79
42119;BMP280;27783;42.782;23.274;2022-08-26T13:55:49;94923.19;;;43.08
42119;BMP280;27783;42.782;23.274;2022-08-26T13:58:15;94922.81;;;43.36
42119;BMP280;27783;42.782;23.274;2022-08-26T14:00:41;94918.91;;;43.41
42119;BMP280;27783;42.782;23.274;2022-08-26T14:03:07;94915.13;;;43.01
42119;BMP280;27783;42.782;23.274;2022-08-26T14:05:33;94920.91;;;41.32
42119;BMP280;27783;42.782;23.274;2022-08-26T14:07:59;94929.28;;;39.30
42119;BMP280;27783;42.782;23.274;2022-08-26T14:10:25;94926.31;;;38.91
42119;BMP280;27783;42.782;23.274;2022-08-26T14:12:51;94925.88;;;38.95
42119;BMP280;27783;42.782;23.274;2022-08-26T14:15:17;94928.16;;;38.89
42119;BMP280;27783;42.782;23.274;2022-08-26T14:17:44;94922.44;;;39.04
42119;BMP280;27783;42.782;23.274;2022-08-26T14:20:21;94932.91;;;39.70
42119;BMP280;27783;42.782;23.274;2022-08-26T14:22:47;94925.63;;;41.20
42119;BMP280;27783;42.782;23.274;2022-08-26T14:25:13;94925.53;;;42.67
42119;BMP280;27783;42.782;23.274;2022-08-26T14:27:39;94918.34;;;43.66
42119;BMP280;27783;42.782;23.274;2022-08-26T14:30:06;94925.75;;;43.62
42119;BMP280;27783;42.782;23.274;2022-08-26T14:32:32;94921.66;;;42.72
42119;BMP280;27783;42.782;23.274;2022-08-26T14:34:57;94919.75;;;43.79
42119;BMP280;27783;42.782;23.274;2022-08-26T14:37:23;94917.75;;;43.92
42119;BMP280;27783;42.782;23.274;2022-08-26T14:39:49;94929.25;;;43.51
42119;BMP280;27783;42.782;23.274;2022-08-26T14:42:18;94922.03;;;44.06
42119;BMP280;27783;42.782;23.274;2022-08-26T14:44:45;94929.19;;;43.74
42119;BMP280;27783;42.782;23.274;2022-08-26T14:47:12;94922.53;;;42.85
42119;BMP280;27783;42.782;23.274;2022-08-26T14:49:37;94922.75;;;41.91
42119;BMP280;27783;42.782;23.274;2022-08-26T14:52:03;94929.22;;;41.11
42119;BMP280;27783;42.782;23.274;2022-08-26T14:54:28;94930.00;;;40.34
42119;BMP280;27783;42.782;23.274;2022-08-26T14:57:03;94926.09;;;39.71
42119;BMP280;27783;42.782;23.274;2022-08-26T14:59:33;94926.56;;;38.86
42119;BMP280;27783;42.782;23.274;2022-08-26T15:01:59;94919.31;;;37.60
42119;BMP280;27783;42.782;23.274;2022-08-26T15:04:25;94928.50;;;36.89
42119;BMP280;27783;42.782;23.274;2022-08-26T15:06:52;94928.59;;;36.34
42119;BMP280;27783;42.782;23.274;2022-08-26T15:09:19;94925.03;;;35.86
42119;BMP280;27783;42.782;23.274;2022-08-26T15:11:45;94931.66;;;35.37
42119;BMP280;27783;42.782;23.274;2022-08-26T15:14:10;94933.25;;;34.95
42119;BMP280;27783;42.782;23.274;2022-08-26T15:16:36;94929.78;;;34.58
42119;BMP280;27783;42.782;23.274;2022-08-26T15:19:02;94935.47;;;34.23
42119;BMP280;27783;42.782;23.274;2022-08-26T15:21:29;94931.94;;;33.94